createdAt,value
2022-12-29T00:02:28.818Z,2.61
2022-12-29T00:12:51.579Z,2.51
2022-12-29T00:23:13.365Z,2.37
2022-12-29T00:33:37.677Z,2.44
2022-12-29T00:43:58.755Z,2.58
2022-12-29T00:54:01.494Z,2.70
2022-12-29T01:04:05.057Z,2.74
2022-12-29T01:14:07.913Z,2.60
2022-12-29T01:24:11.063Z,2.48
2022-12-29T01:34:14.271Z,2.54
2022-12-29T01:44:48.401Z,2.75
2022-12-29T01:54:55.897Z,2.88
2022-12-29T02:05:04.460Z,2.82
2022-12-29T02:15:08.590Z,2.67
2022-12-29T02:25:17.633Z,2.65
2022-12-29T02:35:26.031Z,3.09
2022-12-29T02:46:16.396Z,3.44
2022-12-29T02:56:19.536Z,3.64
2022-12-29T03:07:01.858Z,3.80
2022-12-29T03:17:11.636Z,3.99
2022-12-29T03:27:20.142Z,4.16
2022-12-29T03:37:28.736Z,4.28
2022-12-29T03:47:31.365Z,4.29
2022-12-29T03:57:34.211Z,4.15
2022-12-29T04:07:40.016Z,3.98
2022-12-29T04:17:43.481Z,3.94
2022-12-29T04:27:46.193Z,3.94
2022-12-29T04:38:11.849Z,3.93
2022-12-29T04:48:16.079Z,4.00
2022-12-29T04:58:38.781Z,4.10
2022-12-29T05:08:41.848Z,4.18
2022-12-29T05:18:44.977Z,4.14
2022-12-29T05:28:47.726Z,4.09
2022-12-29T05:38:54.630Z,4.06
2022-12-29T05:48:57.404Z,4.06
2022-12-29T05:59:06.501Z,4.06
2022-12-29T06:09:12.017Z,3.95
2022-12-29T06:19:14.945Z,3.84
2022-12-29T06:29:18.718Z,3.82
2022-12-29T06:39:21.969Z,3.74
2022-12-29T06:49:37.036Z,3.59
2022-12-29T06:59:39.545Z,3.56
2022-12-29T07:09:42.067Z,3.69
2022-12-29T07:19:45.528Z,3.90
2022-12-29T07:29:48.070Z,4.19
2022-12-29T07:39:50.708Z,4.53
2022-12-29T07:49:53.449Z,4.88
2022-12-29T07:59:56.156Z,5.12
2022-12-29T08:09:58.943Z,5.30
2022-12-29T08:20:02.450Z,5.53
2022-12-29T08:30:05.957Z,5.71
2022-12-29T08:40:09.759Z,5.97
2022-12-29T08:50:16.472Z,6.22
2022-12-29T09:00:20.954Z,6.47
2022-12-29T09:10:24.566Z,6.84
2022-12-29T09:20:27.148Z,7.23
2022-12-29T09:30:30.298Z,7.52
2022-12-29T09:40:34.399Z,7.49
2022-12-29T09:50:39.871Z,7.40
2022-12-29T10:00:55.643Z,7.36
2022-12-29T10:11:22.624Z,7.33
2022-12-29T10:21:51.203Z,7.40
2022-12-29T10:32:41.389Z,7.59
2022-12-29T10:42:51.408Z,7.79
2022-12-29T10:52:57.204Z,7.95
2022-12-29T11:03:21.542Z,8.01
2022-12-29T11:13:39.477Z,8.19
2022-12-29T11:23:43.210Z,8.27
2022-12-29T11:33:46.463Z,8.36
2022-12-29T11:44:13.638Z,8.55
2022-12-29T11:54:32.865Z,8.84
2022-12-29T12:04:38.048Z,9.07
2022-12-29T12:14:55.263Z,9.20
2022-12-29T12:25:24.707Z,9.25
2022-12-29T12:35:42.216Z,9.37
2022-12-29T12:46:11.583Z,9.53
2022-12-29T12:56:43.029Z,9.60
2022-12-29T13:07:16.690Z,9.54
2022-12-29T13:17:43.284Z,9.48
2022-12-29T13:28:13.702Z,9.49
2022-12-29T13:38:45.250Z,9.44
2022-12-29T13:48:54.247Z,9.31
2022-12-29T13:59:21.647Z,9.13
2022-12-29T14:09:51.804Z,8.93
2022-12-29T14:19:55.469Z,8.75
2022-12-29T14:29:59.145Z,8.70
2022-12-29T14:40:25.736Z,8.57
2022-12-29T14:50:45.887Z,8.33
2022-12-29T15:01:00.100Z,8.11
2022-12-29T15:11:19.618Z,7.96
2022-12-29T15:21:30.942Z,7.87
2022-12-29T15:31:33.799Z,7.69
2022-12-29T15:42:00.635Z,7.38
2022-12-29T15:52:08.961Z,7.03
2022-12-29T16:02:12.623Z,6.66
2022-12-29T16:12:22.729Z,6.30
2022-12-29T16:22:33.553Z,6.07
2022-12-29T16:32:48.329Z,5.80
2022-12-29T16:42:55.343Z,5.52
2022-12-29T16:52:58.887Z,5.28
2022-12-29T17:03:03.034Z,5.13
2022-12-29T17:13:06.625Z,5.09
2022-12-29T17:23:19.868Z,4.97
2022-12-29T17:34:15.969Z,4.72
2022-12-29T17:44:21.307Z,4.47
2022-12-29T17:54:26.845Z,4.27
2022-12-29T18:04:30.131Z,4.06
2022-12-29T18:14:33.835Z,3.77
2022-12-29T18:24:36.748Z,3.50
2022-12-29T18:34:41.650Z,3.39
2022-12-29T18:44:44.768Z,3.34
2022-12-29T18:54:47.641Z,3.31
2022-12-29T19:18:41.924Z,3.13
2022-12-29T19:28:28.314Z,3.21
2022-12-29T19:39:14.461Z,3.36
2022-12-29T19:49:21.407Z,3.38
2022-12-29T19:59:26.722Z,3.30
2022-12-29T20:09:32.102Z,3.28
2022-12-29T20:19:36.775Z,3.30
2022-12-29T20:29:42.823Z,3.22
2022-12-29T20:39:45.965Z,3.11
2022-12-29T20:49:48.760Z,3.08
2022-12-29T20:59:51.647Z,3.06
2022-12-29T21:09:55.121Z,3.13
2022-12-29T21:19:58.786Z,3.37
2022-12-29T21:30:01.481Z,3.55
2022-12-29T21:40:05.529Z,3.78
2022-12-29T21:50:08.557Z,4.06
2022-12-29T22:00:30.638Z,4.36
2022-12-29T22:10:52.117Z,4.66
2022-12-29T22:20:54.926Z,5.06
2022-12-29T22:30:57.967Z,5.35
2022-12-29T22:41:01.187Z,5.55
2022-12-29T22:51:04.680Z,5.75
2022-12-29T23:01:08.604Z,5.88
2022-12-29T23:11:12.384Z,5.86
2022-12-29T23:21:17.521Z,5.83
2022-12-29T23:31:21.749Z,5.73
2022-12-29T23:41:25.042Z,5.50
2022-12-29T23:51:27.781Z,5.32
